sensor_id;sensor_type;location;lat;lon;timestamp;temperature;humidity
10828;DHT22;5467;59.334;13.512;2023-04-25T00:00:21;6.00;99.90
10828;DHT22;5467;59.334;13.512;2023-04-25T00:02:50;6.00;99.90
10828;DHT22;5467;59.334;13.512;2023-04-25T00:05:17;5.90;99.90
10828;DHT22;5467;59.334;13.512;2023-04-25T00:07:45;5.80;99.90
10828;DHT22;5467;59.334;13.512;2023-04-25T00:10:12;5.80;99.90
10828;DHT22;5467;59.334;13.512;2023-04-25T00:12:40;5.80;99.90
10828;DHT22;5467;59.334;13.512;2023-04-25T00:15:07;5.80;99.90
10828;DHT22;5467;59.334;13.512;2023-04-25T00:17:35;5.80;99.90
10828;DHT22;5467;59.334;13.512;2023-04-25T00:20:06;5.70;99.90
10828;DHT22;5467;59.334;13.512;2023-04-25T00:22:35;5.80;99.90
10828;DHT22;5467;59.334;13.512;2023-04-25T00:25:03;5.70;99.90
10828;DHT22;5467;59.334;13.512;2023-04-25T00:27:30;5.70;99.90
10828;DHT22;5467;59.334;13.512;2023-04-25T00:29:57;5.70;99.90
10828;DHT22;5467;59.334;13.512;2023-04-25T00:32:25;5.70;99.90
10828;DHT22;5467;59.334;13.512;2023-04-25T00:34:52;5.70;99.90
10828;DHT22;5467;59.334;13.512;2023-04-25T00:37:22;5.70;99.90
10828;DHT22;5467;59.334;13.512;2023-04-25T00:39:50;5.60;99.90
10828;DHT22;5467;59.334;13.512;2023-04-25T00:42:19;5.50;99.90
10828;DHT22;5467;59.334;13.512;2023-04-25T00:44:46;5.40;99.90
10828;DHT22;5467;59.334;13.512;2023-04-25T00:47:14;5.50;99.90
10828;DHT22;5467;59.334;13.512;2023-04-25T00:49:41;5.50;99.90
10828;DHT22;5467;59.334;13.512;2023-04-25T00:52:09;5.40;99.90
10828;DHT22;5467;59.334;13.512;2023-04-25T00:54:38;5.40;99.90
10828;DHT22;5467;59.334;13.512;2023-04-25T00:57:05;5.30;99.90
10828;DHT22;5467;59.334;13.512;2023-04-25T00:59:33;5.30;99.90
10828;DHT22;5467;59.334;13.512;2023-04-25T01:02:00;5.30;99.90
10828;DHT22;5467;59.334;13.512;2023-04-25T01:04:28;5.30;99.90
10828;DHT22;5467;59.334;13.512;2023-04-25T01:06:55;5.30;99.90
10828;DHT22;5467;59.334;13.512;2023-04-25T01:09:22;5.40;99.90
10828;DHT22;5467;59.334;13.512;2023-04-25T01:11:51;5.30;99.90
10828;DHT22;5467;59.334;13.512;2023-04-25T01:14:18;5.20;99.90
10828;DHT22;5467;59.334;13.512;2023-04-25T01:16:45;5.10;99.90
10828;DHT22;5467;59.334;13.512;2023-04-25T01:19:16;5.10;99.90
10828;DHT22;5467;59.334;13.512;2023-04-25T01:21:52;5.10;99.90
10828;DHT22;5467;59.334;13.512;2023-04-25T01:24:19;5.10;99.90
10828;DHT22;5467;59.334;13.512;2023-04-25T01:26:46;5.00;99.90
10828;DHT22;5467;59.334;13.512;2023-04-25T01:29:16;5.00;99.90
10828;DHT22;5467;59.334;13.512;2023-04-25T01:31:44;5.10;99.90
10828;DHT22;5467;59.334;13.512;2023-04-25T01:34:12;4.90;99.90
10828;DHT22;5467;59.334;13.512;2023-04-25T01:36:39;4.90;99.90
10828;DHT22;5467;59.334;13.512;2023-04-25T01:39:09;4.80;99.90
10828;DHT22;5467;59.334;13.512;2023-04-25T01:41:36;4.80;99.90
10828;DHT22;5467;59.334;13.512;2023-04-25T01:44:04;4.80;99.90
10828;DHT22;5467;59.334;13.512;2023-04-25T01:46:32;5.00;99.90
10828;DHT22;5467;59.334;13.512;2023-04-25T01:49:00;4.70;99.90
10828;DHT22;5467;59.334;13.512;2023-04-25T01:51:27;4.70;99.90
10828;DHT22;5467;59.334;13.512;2023-04-25T01:53:55;4.70;99.90
10828;DHT22;5467;59.334;13.512;2023-04-25T01:56:24;4.70;99.90
10828;DHT22;5467;59.334;13.512;2023-04-25T01:58:52;4.60;99.90
10828;DHT22;5467;59.334;13.512;2023-04-25T02:01:19;4.60;99.90
10828;DHT22;5467;59.334;13.512;2023-04-25T02:03:46;4.60;99.90
10828;DHT22;5467;59.334;13.512;2023-04-25T02:06:13;4.60;99.90
10828;DHT22;5467;59.334;13.512;2023-04-25T02:08:40;4.50;99.90
10828;DHT22;5467;59.334;13.512;2023-04-25T02:11:07;4.50;99.90
10828;DHT22;5467;59.334;13.512;2023-04-25T02:13:35;4.60;99.90
10828;DHT22;5467;59.334;13.512;2023-04-25T02:16:03;4.50;99.90
10828;DHT22;5467;59.334;13.512;2023-04-25T02:18:30;4.50;99.90
10828;DHT22;5467;59.334;13.512;2023-04-25T02:20:59;4.50;99.90
10828;DHT22;5467;59.334;13.512;2023-04-25T02:23:26;4.50;99.90
10828;DHT22;5467;59.334;13.512;2023-04-25T02:25:53;4.40;99.90
10828;DHT22;5467;59.334;13.512;2023-04-25T02:28:21;4.40;99.90
10828;DHT22;5467;59.334;13.512;2023-04-25T02:30:49;4.40;99.90
10828;DHT22;5467;59.334;13.512;2023-04-25T02:33:17;4.40;99.90
10828;DHT22;5467;59.334;13.512;2023-04-25T02:35:44;4.40;99.90
10828;DHT22;5467;59.334;13.512;2023-04-25T02:38:11;4.50;99.90
10828;DHT22;5467;59.334;13.512;2023-04-25T02:40:38;4.40;99.90
10828;DHT22;5467;59.334;13.512;2023-04-25T02:43:06;4.40;99.90
10828;DHT22;5467;59.334;13.512;2023-04-25T02:45:33;4.40;99.90
10828;DHT22;5467;59.334;13.512;2023-04-25T02:48:02;4.40;99.90
10828;DHT22;5467;59.334;13.512;2023-04-25T02:50:29;4.30;99.90
10828;DHT22;5467;59.334;13.512;2023-04-25T02:52:56;4.30;99.90
10828;DHT22;5467;59.334;13.512;2023-04-25T02:55:23;4.30;99.90
10828;DHT22;5467;59.334;13.512;2023-04-25T02:57:50;4.30;99.90
10828;DHT22;5467;59.334;13.512;2023-04-25T03:00:17;4.30;99.90
10828;DHT22;5467;59.334;13.512;2023-04-25T03:02:44;4.30;99.90
10828;DHT22;5467;59.334;13.512;2023-04-25T03:05:20;4.30;99.90
10828;DHT22;5467;59.334;13.512;2023-04-25T03:07:47;4.20;99.90
10828;DHT22;5467;59.334;13.512;2023-04-25T03:10:14;4.20;99.90
10828;DHT22;5467;59.334;13.512;2023-04-25T03:12:41;4.20;99.90
10828;DHT22;5467;59.334;13.512;2023-04-25T03:15:09;4.20;99.90
10828;DHT22;5467;59.334;13.512;2023-04-25T03:17:36;4.20;99.90
10828;DHT22;5467;59.334;13.512;2023-04-25T03:20:04;4.20;99.90
10828;DHT22;5467;59.334;13.512;2023-04-25T03:22:35;4.20;99.90
10828;DHT22;5467;59.334;13.512;2023-04-25T03:25:02;4.20;99.90
10828;DHT22;5467;59.334;13.512;2023-04-25T03:27:30;4.30;99.90
10828;DHT22;5467;59.334;13.512;2023-04-25T03:29:58;4.20;99.90
10828;DHT22;5467;59.334;13.512;2023-04-25T03:32:25;4.20;99.90
10828;DHT22;5467;59.334;13.512;2023-04-25T03:34:52;4.20;99.90
10828;DHT22;5467;59.334;13.512;2023-04-25T03:37:19;4.20;99.90
10828;DHT22;5467;59.334;13.512;2023-04-25T03:39:48;4.20;99.90
10828;DHT22;5467;59.334;13.512;2023-04-25T03:42:15;4.10;99.90
10828;DHT22;5467;59.334;13.512;2023-04-25T03:44:43;4.10;99.90
10828;DHT22;5467;59.334;13.512;2023-04-25T03:47:10;4.10;99.90
10828;DHT22;5467;59.334;13.512;2023-04-25T03:49:37;4.10;99.90
10828;DHT22;5467;59.334;13.512;2023-04-25T03:52:05;4.10;99.90
10828;DHT22;5467;59.334;13.512;2023-04-25T03:54:32;4.10;99.90
10828;DHT22;5467;59.334;13.512;2023-04-25T03:57:00;4.10;99.90
10828;DHT22;5467;59.334;13.512;2023-04-25T03:59:27;4.20;99.90
10828;DHT22;5467;59.334;13.512;2023-04-25T04:01:55;4.10;99.90
10828;DHT22;5467;59.334;13.512;2023-04-25T04:04:22;4.10;99.90
10828;DHT22;5467;59.334;13.512;2023-04-25T04:06:49;4.10;99.90
10828;DHT22;5467;59.334;13.512;2023-04-25T04:09:18;4.10;99.90
10828;DHT22;5467;59.334;13.512;2023-04-25T04:11:46;4.10;99.90
10828;DHT22;5467;59.334;13.512;2023-04-25T04:14:14;4.00;99.90
10828;DHT22;5467;59.334;13.512;2023-04-25T04:16:42;4.00;99.90
10828;DHT22;5467;59.334;13.512;2023-04-25T04:19:09;4.10;99.90
10828;DHT22;5467;59.334;13.512;2023-04-25T04:21:36;4.00;99.90
10828;DHT22;5467;59.334;13.512;2023-04-25T04:24:04;4.10;99.90
10828;DHT22;5467;59.334;13.512;2023-04-25T04:26:32;4.00;99.90
10828;DHT22;5467;59.334;13.512;2023-04-25T04:29:00;4.00;99.90
10828;DHT22;5467;59.334;13.512;2023-04-25T04:31:29;4.10;99.90
10828;DHT22;5467;59.334;13.512;2023-04-25T04:33:56;4.00;99.90
10828;DHT22;5467;59.334;13.512;2023-04-25T04:36:23;4.00;99.90
10828;DHT22;5467;59.334;13.512;2023-04-25T04:38:52;4.00;99.90
10828;DHT22;5467;59.334;13.512;2023-04-25T04:41:19;4.10;99.90
10828;DHT22;5467;59.334;13.512;2023-04-25T04:43:46;4.10;99.90
10828;DHT22;5467;59.334;13.512;2023-04-25T04:46:14;4.20;99.90
10828;DHT22;5467;59.334;13.512;2023-04-25T04:48:43;4.10;99.90
10828;DHT22;5467;59.334;13.512;2023-04-25T04:51:11;4.00;99.90
10828;DHT22;5467;59.334;13.512;2023-04-25T04:53:38;4.00;99.90
10828;DHT22;5467;59.334;13.512;2023-04-25T04:56:06;4.00;99.90
10828;DHT22;5467;59.334;13.512;2023-04-25T04:58:33;4.00;99.90
10828;DHT22;5467;59.334;13.512;2023-04-25T05:01:02;4.00;99.90
10828;DHT22;5467;59.334;13.512;2023-04-25T05:03:29;4.00;99.90
10828;DHT22;5467;59.334;13.512;2023-04-25T05:05:57;3.90;99.90
10828;DHT22;5467;59.334;13.512;2023-04-25T05:08:25;4.00;99.90
10828;DHT22;5467;59.334;13.512;2023-04-25T05:10:52;4.00;99.90
10828;DHT22;5467;59.334;13.512;2023-04-25T05:13:20;4.00;99.90
10828;DHT22;5467;59.334;13.512;2023-04-25T05:15:47;4.00;99.90
10828;DHT22;5467;59.334;13.512;2023-04-25T05:18:14;4.00;99.90
10828;DHT22;5467;59.334;13.512;2023-04-25T05:20:41;4.00;99.90
10828;DHT22;5467;59.334;13.512;2023-04-25T05:23:10;3.90;99.90
10828;DHT22;5467;59.334;13.512;2023-04-25T05:25:37;3.90;99.90
10828;DHT22;5467;59.334;13.512;2023-04-25T05:28:04;3.90;99.90
10828;DHT22;5467;59.334;13.512;2023-04-25T05:30:32;3.90;99.90
10828;DHT22;5467;59.334;13.512;2023-04-25T05:32:59;4.00;99.90
10828;DHT22;5467;59.334;13.512;2023-04-25T05:35:26;4.00;99.90
10828;DHT22;5467;59.334;13.512;2023-04-25T05:37:53;4.00;99.90
10828;DHT22;5467;59.334;13.512;2023-04-25T05:40:24;4.00;99.90
10828;DHT22;5467;59.334;13.512;2023-04-25T05:42:51;4.00;99.90
10828;DHT22;5467;59.334;13.512;2023-04-25T05:45:19;3.90;99.90
10828;DHT22;5467;59.334;13.512;2023-04-25T05:47:46;3.90;99.90
10828;DHT22;5467;59.334;13.512;2023-04-25T05:50:15;4.00;99.90
10828;DHT22;5467;59.334;13.512;2023-04-25T05:52:44;4.00;99.90
10828;DHT22;5467;59.334;13.512;2023-04-25T05:55:12;4.00;99.90
10828;DHT22;5467;59.334;13.512;2023-04-25T05:57:40;4.10;99.90
10828;DHT22;5467;59.334;13.512;2023-04-25T06:00:13;4.00;99.90
10828;DHT22;5467;59.334;13.512;2023-04-25T06:02:44;4.00;99.90
10828;DHT22;5467;59.334;13.512;2023-04-25T06:05:12;4.00;99.90
10828;DHT22;5467;59.334;13.512;2023-04-25T06:07:39;4.00;99.90
10828;DHT22;5467;59.334;13.512;2023-04-25T06:10:08;4.00;99.90
10828;DHT22;5467;59.334;13.512;2023-04-25T06:12:39;3.90;99.90
10828;DHT22;5467;59.334;13.512;2023-04-25T06:15:09;4.00;99.90
10828;DHT22;5467;59.334;13.512;2023-04-25T06:17:38;4.10;99.90
10828;DHT22;5467;59.334;13.512;2023-04-25T06:20:07;4.00;99.90
10828;DHT22;5467;59.334;13.512;2023-04-25T06:22:35;4.10;99.90
10828;DHT22;5467;59.334;13.512;2023-04-25T06:25:02;4.10;99.90
10828;DHT22;5467;59.334;13.512;2023-04-25T06:27:30;4.10;99.90
10828;DHT22;5467;59.334;13.512;2023-04-25T06:29:59;4.10;99.90
10828;DHT22;5467;59.334;13.512;2023-04-25T06:32:26;4.00;99.90
10828;DHT22;5467;59.334;13.512;2023-04-25T06:34:55;4.10;99.90
10828;DHT22;5467;59.334;13.512;2023-04-25T06:37:23;4.00;99.90
10828;DHT22;5467;59.334;13.512;2023-04-25T06:39:51;4.10;99.90
10828;DHT22;5467;59.334;13.512;2023-04-25T06:42:21;3.90;99.90
10828;DHT22;5467;59.334;13.512;2023-04-25T06:44:50;4.00;99.90
10828;DHT22;5467;59.334;13.512;2023-04-25T06:47:19;4.10;99.90
10828;DHT22;5467;59.334;13.512;2023-04-25T06:49:46;4.10;99.90
10828;DHT22;5467;59.334;13.512;2023-04-25T06:52:13;4.10;99.90
10828;DHT22;5467;59.334;13.512;2023-04-25T06:54:40;4.20;99.90
10828;DHT22;5467;59.334;13.512;2023-04-25T06:57:08;4.20;99.90
10828;DHT22;5467;59.334;13.512;2023-04-25T06:59:35;4.10;99.90
10828;DHT22;5467;59.334;13.512;2023-04-25T07:02:03;4.10;99.90
10828;DHT22;5467;59.334;13.512;2023-04-25T07:04:33;4.10;99.90
10828;DHT22;5467;59.334;13.512;2023-04-25T07:07:00;4.20;99.90
10828;DHT22;5467;59.334;13.512;2023-04-25T07:09:28;4.20;99.90
10828;DHT22;5467;59.334;13.512;2023-04-25T07:12:02;4.20;99.90
10828;DHT22;5467;59.334;13.512;2023-04-25T07:14:29;4.20;99.90
10828;DHT22;5467;59.334;13.512;2023-04-25T07:16:57;4.20;99.90
10828;DHT22;5467;59.334;13.512;2023-04-25T07:19:24;4.30;99.90
10828;DHT22;5467;59.334;13.512;2023-04-25T07:21:53;4.30;99.90
10828;DHT22;5467;59.334;13.512;2023-04-25T07:24:20;4.30;99.90
10828;DHT22;5467;59.334;13.512;2023-04-25T07:26:48;4.30;99.90
10828;DHT22;5467;59.334;13.512;2023-04-25T07:29:15;4.30;99.90
10828;DHT22;5467;59.334;13.512;2023-04-25T07:31:43;4.70;99.90
10828;DHT22;5467;59.334;13.512;2023-04-25T07:34:10;4.30;99.90
10828;DHT22;5467;59.334;13.512;2023-04-25T07:36:37;4.50;99.90
10828;DHT22;5467;59.334;13.512;2023-04-25T07:39:07;4.40;99.90
10828;DHT22;5467;59.334;13.512;2023-04-25T07:41:35;4.50;99.90
10828;DHT22;5467;59.334;13.512;2023-04-25T07:44:02;4.50;99.90
10828;DHT22;5467;59.334;13.512;2023-04-25T07:46:30;4.60;99.90
10828;DHT22;5467;59.334;13.512;2023-04-25T07:49:00;4.60;99.90
10828;DHT22;5467;59.334;13.512;2023-04-25T07:51:28;4.50;99.90
10828;DHT22;5467;59.334;13.512;2023-04-25T07:53:55;4.50;99.90
10828;DHT22;5467;59.334;13.512;2023-04-25T07:56:24;4.50;99.90
10828;DHT22;5467;59.334;13.512;2023-04-25T07:58:51;4.60;99.90
10828;DHT22;5467;59.334;13.512;2023-04-25T08:01:18;4.60;99.90
10828;DHT22;5467;59.334;13.512;2023-04-25T08:03:48;4.50;99.90
10828;DHT22;5467;59.334;13.512;2023-04-25T08:06:16;4.50;99.90
10828;DHT22;5467;59.334;13.512;2023-04-25T08:08:44;4.50;99.90
10828;DHT22;5467;59.334;13.512;2023-04-25T08:11:11;4.50;99.90
10828;DHT22;5467;59.334;13.512;2023-04-25T08:13:40;4.50;99.90
10828;DHT22;5467;59.334;13.512;2023-04-25T08:16:07;4.70;99.90
10828;DHT22;5467;59.334;13.512;2023-04-25T08:18:37;4.60;99.90
10828;DHT22;5467;59.334;13.512;2023-04-25T08:21:04;4.80;99.90
10828;DHT22;5467;59.334;13.512;2023-04-25T08:23:32;4.80;99.90
10828;DHT22;5467;59.334;13.512;2023-04-25T08:25:59;4.80;99.90
10828;DHT22;5467;59.334;13.512;2023-04-25T08:28:26;4.90;99.90
10828;DHT22;5467;59.334;13.512;2023-04-25T08:30:55;5.00;99.90
10828;DHT22;5467;59.334;13.512;2023-04-25T08:33:25;5.00;99.90
10828;DHT22;5467;59.334;13.512;2023-04-25T08:35:52;5.00;99.90
10828;DHT22;5467;59.334;13.512;2023-04-25T08:38:20;4.90;99.90
10828;DHT22;5467;59.334;13.512;2023-04-25T08:40:50;5.00;99.90
10828;DHT22;5467;59.334;13.512;2023-04-25T08:43:19;5.10;99.90
10828;DHT22;5467;59.334;13.512;2023-04-25T08:45:49;5.20;99.90
10828;DHT22;5467;59.334;13.512;2023-04-25T08:48:21;5.20;99.90
10828;DHT22;5467;59.334;13.512;2023-04-25T08:50:54;5.10;99.90
10828;DHT22;5467;59.334;13.512;2023-04-25T08:53:25;5.10;99.90
10828;DHT22;5467;59.334;13.512;2023-04-25T08:55:54;5.00;99.90
10828;DHT22;5467;59.334;13.512;2023-04-25T08:58:22;5.10;99.90
10828;DHT22;5467;59.334;13.512;2023-04-25T09:00:51;5.20;99.90
10828;DHT22;5467;59.334;13.512;2023-04-25T09:03:20;4.90;99.90
10828;DHT22;5467;59.334;13.512;2023-04-25T09:05:47;5.20;99.90
10828;DHT22;5467;59.334;13.512;2023-04-25T09:08:17;5.40;99.90
10828;DHT22;5467;59.334;13.512;2023-04-25T09:10:44;5.50;99.90
10828;DHT22;5467;59.334;13.512;2023-04-25T09:13:13;5.40;99.90
10828;DHT22;5467;59.334;13.512;2023-04-25T09:15:47;5.50;99.90
10828;DHT22;5467;59.334;13.512;2023-04-25T09:18:24;5.60;99.90
10828;DHT22;5467;59.334;13.512;2023-04-25T09:20:56;5.50;99.90
10828;DHT22;5467;59.334;13.512;2023-04-25T09:23:25;5.40;99.90
10828;DHT22;5467;59.334;13.512;2023-04-25T09:25:53;5.40;99.90
10828;DHT22;5467;59.334;13.512;2023-04-25T09:28:24;5.50;99.90
10828;DHT22;5467;59.334;13.512;2023-04-25T09:30:55;5.50;99.90
10828;DHT22;5467;59.334;13.512;2023-04-25T09:33:29;5.50;99.90
10828;DHT22;5467;59.334;13.512;2023-04-25T09:36:02;5.50;99.90
10828;DHT22;5467;59.334;13.512;2023-04-25T09:38:30;5.40;99.90
10828;DHT22;5467;59.334;13.512;2023-04-25T09:40:58;5.50;99.90
10828;DHT22;5467;59.334;13.512;2023-04-25T09:43:26;5.60;99.90
10828;DHT22;5467;59.334;13.512;2023-04-25T09:45:54;5.60;99.90
10828;DHT22;5467;59.334;13.512;2023-04-25T09:48:23;5.70;99.90
10828;DHT22;5467;59.334;13.512;2023-04-25T09:51:05;5.80;99.90
10828;DHT22;5467;59.334;13.512;2023-04-25T09:53:33;5.80;99.90
10828;DHT22;5467;59.334;13.512;2023-04-25T09:56:04;5.80;99.90
10828;DHT22;5467;59.334;13.512;2023-04-25T09:58:33;5.80;99.90
10828;DHT22;5467;59.334;13.512;2023-04-25T10:01:02;5.80;99.90
10828;DHT22;5467;59.334;13.512;2023-04-25T10:03:30;5.70;99.90
10828;DHT22;5467;59.334;13.512;2023-04-25T10:06:00;5.70;99.90
10828;DHT22;5467;59.334;13.512;2023-04-25T10:08:32;5.70;99.90
10828;DHT22;5467;59.334;13.512;2023-04-25T10:11:00;5.70;99.90
10828;DHT22;5467;59.334;13.512;2023-04-25T10:13:29;5.60;99.90
10828;DHT22;5467;59.334;13.512;2023-04-25T10:15:57;5.50;99.90
10828;DHT22;5467;59.334;13.512;2023-04-25T10:18:25;5.70;99.90
10828;DHT22;5467;59.334;13.512;2023-04-25T10:20:54;5.60;99.90
10828;DHT22;5467;59.334;13.512;2023-04-25T10:23:23;5.70;99.90
10828;DHT22;5467;59.334;13.512;2023-04-25T10:25:52;5.70;99.90
10828;DHT22;5467;59.334;13.512;2023-04-25T10:28:20;5.70;99.90
10828;DHT22;5467;59.334;13.512;2023-04-25T10:30:58;5.70;99.90
10828;DHT22;5467;59.334;13.512;2023-04-25T10:33:36;5.60;99.90
10828;DHT22;5467;59.334;13.512;2023-04-25T10:36:11;5.70;99.90
10828;DHT22;5467;59.334;13.512;2023-04-25T10:38:39;5.70;99.90
10828;DHT22;5467;59.334;13.512;2023-04-25T10:41:11;5.70;99.90
10828;DHT22;5467;59.334;13.512;2023-04-25T10:43:39;5.80;99.90
10828;DHT22;5467;59.334;13.512;2023-04-25T10:46:17;5.80;99.90
10828;DHT22;5467;59.334;13.512;2023-04-25T10:48:46;5.70;99.90
10828;DHT22;5467;59.334;13.512;2023-04-25T10:51:19;5.80;99.90
10828;DHT22;5467;59.334;13.512;2023-04-25T10:53:48;5.90;99.90
10828;DHT22;5467;59.334;13.512;2023-04-25T10:56:26;5.90;99.90
10828;DHT22;5467;59.334;13.512;2023-04-25T10:59:04;5.80;99.90
10828;DHT22;5467;59.334;13.512;2023-04-25T11:01:36;5.80;99.90
10828;DHT22;5467;59.334;13.512;2023-04-25T11:04:06;5.90;99.90
10828;DHT22;5467;59.334;13.512;2023-04-25T11:06:55;6.00;99.90
10828;DHT22;5467;59.334;13.512;2023-04-25T11:09:33;6.00;99.90
10828;DHT22;5467;59.334;13.512;2023-04-25T11:12:04;6.00;99.90
10828;DHT22;5467;59.334;13.512;2023-04-25T11:14:31;5.90;99.90
10828;DHT22;5467;59.334;13.512;2023-04-25T11:16:59;5.90;99.90
10828;DHT22;5467;59.334;13.512;2023-04-25T11:19:29;5.90;99.90
10828;DHT22;5467;59.334;13.512;2023-04-25T11:21:56;5.90;99.90
10828;DHT22;5467;59.334;13.512;2023-04-25T11:24:26;5.90;99.90
10828;DHT22;5467;59.334;13.512;2023-04-25T11:26:54;6.00;99.90
10828;DHT22;5467;59.334;13.512;2023-04-25T11:29:24;6.10;99.90
10828;DHT22;5467;59.334;13.512;2023-04-25T11:31:54;6.10;99.90
10828;DHT22;5467;59.334;13.512;2023-04-25T11:34:23;6.00;99.90
10828;DHT22;5467;59.334;13.512;2023-04-25T11:36:52;6.00;99.90
10828;DHT22;5467;59.334;13.512;2023-04-25T11:39:19;6.00;99.90
10828;DHT22;5467;59.334;13.512;2023-04-25T11:41:47;6.10;99.90
10828;DHT22;5467;59.334;13.512;2023-04-25T11:44:15;6.10;99.90
10828;DHT22;5467;59.334;13.512;2023-04-25T11:46:44;6.20;99.90
10828;DHT22;5467;59.334;13.512;2023-04-25T11:49:12;6.20;99.90
10828;DHT22;5467;59.334;13.512;2023-04-25T11:51:39;6.30;99.90
10828;DHT22;5467;59.334;13.512;2023-04-25T11:54:07;6.30;99.90
10828;DHT22;5467;59.334;13.512;2023-04-25T11:56:34;6.50;99.90
10828;DHT22;5467;59.334;13.512;2023-04-25T11:59:02;6.70;99.90
10828;DHT22;5467;59.334;13.512;2023-04-25T12:01:31;6.50;99.90
10828;DHT22;5467;59.334;13.512;2023-04-25T12:04:11;6.60;99.90
10828;DHT22;5467;59.334;13.512;2023-04-25T12:06:39;6.60;99.90
10828;DHT22;5467;59.334;13.512;2023-04-25T12:09:08;6.90;99.90
10828;DHT22;5467;59.334;13.512;2023-04-25T12:11:43;7.10;99.90
10828;DHT22;5467;59.334;13.512;2023-04-25T12:14:11;7.20;99.90
10828;DHT22;5467;59.334;13.512;2023-04-25T12:16:42;7.20;99.90
10828;DHT22;5467;59.334;13.512;2023-04-25T12:19:13;7.40;99.90
10828;DHT22;5467;59.334;13.512;2023-04-25T12:21:41;7.40;99.90
10828;DHT22;5467;59.334;13.512;2023-04-25T12:24:12;7.40;99.90
10828;DHT22;5467;59.334;13.512;2023-04-25T12:26:47;7.60;99.90
10828;DHT22;5467;59.334;13.512;2023-04-25T12:29:17;7.80;99.90
10828;DHT22;5467;59.334;13.512;2023-04-25T12:31:44;7.80;99.90
10828;DHT22;5467;59.334;13.512;2023-04-25T12:34:13;7.70;99.90
10828;DHT22;5467;59.334;13.512;2023-04-25T12:36:41;7.70;99.90
10828;DHT22;5467;59.334;13.512;2023-04-25T12:39:08;7.60;99.90
10828;DHT22;5467;59.334;13.512;2023-04-25T12:41:35;7.60;99.90
10828;DHT22;5467;59.334;13.512;2023-04-25T12:44:03;7.70;99.90
10828;DHT22;5467;59.334;13.512;2023-04-25T12:46:31;7.70;99.90
10828;DHT22;5467;59.334;13.512;2023-04-25T12:48:58;7.70;99.90
10828;DHT22;5467;59.334;13.512;2023-04-25T12:51:27;7.70;99.90
10828;DHT22;5467;59.334;13.512;2023-04-25T12:53:56;7.70;99.90
10828;DHT22;5467;59.334;13.512;2023-04-25T12:56:23;7.80;99.90
10828;DHT22;5467;59.334;13.512;2023-04-25T12:58:51;7.90;99.90
10828;DHT22;5467;59.334;13.512;2023-04-25T13:01:19;7.90;99.90
10828;DHT22;5467;59.334;13.512;2023-04-25T13:03:46;7.80;99.90
10828;DHT22;5467;59.334;13.512;2023-04-25T13:06:14;7.90;99.90
10828;DHT22;5467;59.334;13.512;2023-04-25T13:08:43;7.90;99.90
10828;DHT22;5467;59.334;13.512;2023-04-25T13:11:11;7.70;99.90
10828;DHT22;5467;59.334;13.512;2023-04-25T13:13:38;7.80;99.90
10828;DHT22;5467;59.334;13.512;2023-04-25T13:16:06;7.90;99.90
10828;DHT22;5467;59.334;13.512;2023-04-25T13:18:34;8.10;99.90
10828;DHT22;5467;59.334;13.512;2023-04-25T13:21:03;8.00;99.90
10828;DHT22;5467;59.334;13.512;2023-04-25T13:23:30;8.00;99.90
10828;DHT22;5467;59.334;13.512;2023-04-25T13:25:59;8.00;99.90
10828;DHT22;5467;59.334;13.512;2023-04-25T13:28:27;8.10;99.90
10828;DHT22;5467;59.334;13.512;2023-04-25T13:30:54;8.10;99.90
10828;DHT22;5467;59.334;13.512;2023-04-25T13:33:22;8.10;99.90
10828;DHT22;5467;59.334;13.512;2023-04-25T13:35:52;7.90;99.90
10828;DHT22;5467;59.334;13.512;2023-04-25T13:38:22;8.00;99.90
10828;DHT22;5467;59.334;13.512;2023-04-25T13:40:51;8.10;99.90
10828;DHT22;5467;59.334;13.512;2023-04-25T13:43:21;8.20;99.90
10828;DHT22;5467;59.334;13.512;2023-04-25T13:45:48;8.30;99.90
10828;DHT22;5467;59.334;13.512;2023-04-25T13:48:16;8.00;99.90
10828;DHT22;5467;59.334;13.512;2023-04-25T13:50:43;7.90;99.90
10828;DHT22;5467;59.334;13.512;2023-04-25T13:53:10;7.80;99.90
10828;DHT22;5467;59.334;13.512;2023-04-25T13:55:38;7.90;99.90
10828;DHT22;5467;59.334;13.512;2023-04-25T13:58:05;7.80;99.90
10828;DHT22;5467;59.334;13.512;2023-04-25T14:00:38;7.80;99.90
10828;DHT22;5467;59.334;13.512;2023-04-25T14:03:06;7.80;99.90
10828;DHT22;5467;59.334;13.512;2023-04-25T14:05:34;7.80;99.90
10828;DHT22;5467;59.334;13.512;2023-04-25T14:08:06;7.70;99.90
10828;DHT22;5467;59.334;13.512;2023-04-25T14:10:34;7.70;99.90
10828;DHT22;5467;59.334;13.512;2023-04-25T14:13:01;7.60;99.90
10828;DHT22;5467;59.334;13.512;2023-04-25T14:15:30;7.60;99.90
10828;DHT22;5467;59.334;13.512;2023-04-25T14:17:59;7.60;99.90
10828;DHT22;5467;59.334;13.512;2023-04-25T14:20:27;7.60;99.90
10828;DHT22;5467;59.334;13.512;2023-04-25T14:22:55;7.60;99.90
10828;DHT22;5467;59.334;13.512;2023-04-25T14:25:23;7.50;99.90
10828;DHT22;5467;59.334;13.512;2023-04-25T14:27:51;7.50;99.90
10828;DHT22;5467;59.334;13.512;2023-04-25T14:30:19;7.70;99.90
10828;DHT22;5467;59.334;13.512;2023-04-25T14:32:47;7.60;99.90
10828;DHT22;5467;59.334;13.512;2023-04-25T14:35:16;7.60;99.90
10828;DHT22;5467;59.334;13.512;2023-04-25T14:37:47;7.50;99.90
10828;DHT22;5467;59.334;13.512;2023-04-25T14:40:15;7.60;99.90
10828;DHT22;5467;59.334;13.512;2023-04-25T14:42:45;7.70;99.90
10828;DHT22;5467;59.334;13.512;2023-04-25T14:45:13;7.60;99.90
10828;DHT22;5467;59.334;13.512;2023-04-25T14:47:40;7.50;99.90
10828;DHT22;5467;59.334;13.512;2023-04-25T14:50:08;7.50;99.90
10828;DHT22;5467;59.334;13.512;2023-04-25T14:52:37;7.40;99.90
10828;DHT22;5467;59.334;13.512;2023-04-25T14:55:04;7.50;99.90
10828;DHT22;5467;59.334;13.512;2023-04-25T14:57:33;7.40;99.90
10828;DHT22;5467;59.334;13.512;2023-04-25T15:00:00;7.40;99.90
10828;DHT22;5467;59.334;13.512;2023-04-25T15:02:28;7.30;99.90
10828;DHT22;5467;59.334;13.512;2023-04-25T15:04:55;7.20;99.90
10828;DHT22;5467;59.334;13.512;2023-04-25T15:07:22;7.30;99.90
10828;DHT22;5467;59.334;13.512;2023-04-25T15:09:51;7.50;99.90
10828;DHT22;5467;59.334;13.512;2023-04-25T15:12:21;7.70;99.90
10828;DHT22;5467;59.334;13.512;2023-04-25T15:14:48;7.90;99.90
10828;DHT22;5467;59.334;13.512;2023-04-25T15:17:16;8.10;99.90
10828;DHT22;5467;59.334;13.512;2023-04-25T15:19:43;8.00;99.90
10828;DHT22;5467;59.334;13.512;2023-04-25T15:22:11;7.90;99.90
10828;DHT22;5467;59.334;13.512;2023-04-25T15:24:38;8.00;99.90
10828;DHT22;5467;59.334;13.512;2023-04-25T15:27:07;8.00;99.90
10828;DHT22;5467;59.334;13.512;2023-04-25T15:29:34;7.90;99.90
10828;DHT22;5467;59.334;13.512;2023-04-25T15:32:04;7.90;99.90
10828;DHT22;5467;59.334;13.512;2023-04-25T15:34:31;8.00;99.90
10828;DHT22;5467;59.334;13.512;2023-04-25T15:36:59;8.20;99.90
10828;DHT22;5467;59.334;13.512;2023-04-25T15:39:26;8.00;99.90
10828;DHT22;5467;59.334;13.512;2023-04-25T15:41:53;7.80;99.90
10828;DHT22;5467;59.334;13.512;2023-04-25T15:44:22;7.70;99.90
10828;DHT22;5467;59.334;13.512;2023-04-25T15:46:49;7.70;99.90
10828;DHT22;5467;59.334;13.512;2023-04-25T15:49:16;7.80;99.90
10828;DHT22;5467;59.334;13.512;2023-04-25T15:51:46;7.80;99.90